Terminal Aerodrome Forecast
Issued by NWS

Home | Current Version | Previous Version | Text Only | Print | Product List | Glossary On
Versions: 1 2 3 4 5 6 7 8 9 10 11 12
267
FTUS45 KABQ 191731
TAFTCC
TAF
KTCC 191731Z 1918/2018 23028G38KT P6SM BKN050
      TEMPO 1921/1924 4SM HZ
     FM200300 23016G26KT P6SM SCT040 BKN120
     FM201400 27016G26KT P6SM BKN040=

USA.gov is the U.S. government's official web portal to all federal, state and local government web resources and services.